Time;durP1;ratioP1;P1;durP2;ratioP2;P2;SDS_P1;SDS_P2;PMS_P1;PMS_P2;Temp;Humidity;BMP_temperature;BMP_pressure;BME280_temperature;BME280_humidity;BME280_pressure;Samples;Min_cycle;Max_cycle;Signal;HPM_P1;HPM_P2
2022/05/09 00:00:00;;;;;;;10.80;4.45;;;;;;;7.72;74.10;102499.81;4998923;28;20022;-83
2022/05/09 00:02:26;;;;;;;9.60;4.78;;;;;;;7.63;73.16;102495.25;4999163;28;20022;-83
2022/05/09 00:04:51;;;;;;;9.80;4.30;;;;;;;7.69;73.33;102497.13;4999281;28;20022;-83
2022/05/09 00:07:16;;;;;;;10.95;3.88;;;;;;;7.67;73.33;102493.63;5001562;28;20032;-83
2022/05/09 00:09:42;;;;;;;9.98;3.72;;;;;;;7.69;72.77;102491.91;5002532;28;20026;-83
2022/05/09 00:12:08;;;;;;;12.05;3.80;;;;;;;7.70;73.29;102491.97;5002342;28;20030;-83
2022/05/09 00:14:33;;;;;;;5.20;3.55;;;;;;;7.63;72.97;102494.38;5001608;28;20030;-83
2022/05/09 00:16:58;;;;;;;8.98;3.97;;;;;;;7.64;72.73;102496.16;5002667;28;20026;-84
2022/05/09 00:19:24;;;;;;;9.35;4.13;;;;;;;7.74;72.99;102490.31;5002296;28;20079;-83
2022/05/09 00:21:51;;;;;;;8.95;3.63;;;;;;;7.65;73.18;102492.69;5002037;28;20027;-83
2022/05/09 00:24:18;;;;;;;11.18;4.30;;;;;;;7.59;73.12;102491.72;5002181;28;20022;-84
2022/05/09 00:26:44;;;;;;;8.20;4.15;;;;;;;7.56;73.08;102494.22;5002468;28;20037;-83
2022/05/09 00:29:11;;;;;;;8.55;4.13;;;;;;;7.54;73.71;102503.72;5002875;28;20058;-84
2022/05/09 00:31:38;;;;;;;10.93;3.92;;;;;;;7.59;72.86;102496.91;5018797;28;20018;-83
2022/05/09 00:34:03;;;;;;;6.72;3.80;;;;;;;7.56;72.58;102494.22;5019058;28;20037;-83
2022/05/09 00:36:30;;;;;;;8.50;4.45;;;;;;;7.53;73.05;102495.88;5003197;28;20491;-83
2022/05/09 00:38:56;;;;;;;9.57;3.67;;;;;;;7.60;72.33;102495.19;5002662;28;20023;-83
2022/05/09 00:41:40;;;;;;;10.18;3.88;;;;;;;7.57;72.23;102495.13;5003794;28;20394;-84
2022/05/09 00:44:21;;;;;;;8.15;4.15;;;;;;;7.56;72.61;102499.41;5005231;28;20019;-83
2022/05/09 00:46:49;;;;;;;10.20;3.97;;;;;;;7.50;73.03;102499.28;5021514;28;20030;-84
2022/05/09 00:49:28;;;;;;;8.93;3.83;;;;;;;7.57;72.44;102505.50;4990245;28;20082;-83
2022/05/09 00:52:01;;;;;;;6.72;4.28;;;;;;;7.55;71.68;102502.88;4981112;28;20022;-83
2022/05/09 00:54:29;;;;;;;11.63;3.85;;;;;;;7.43;71.85;102498.25;4981459;28;20482;-83
2022/05/09 00:57:01;;;;;;;8.88;3.60;;;;;;;7.47;71.87;102504.38;4996864;28;20029;-83
2022/05/09 00:59:30;;;;;;;7.60;3.08;;;;;;;7.41;72.46;102505.09;4997468;28;20486;-83
2022/05/09 01:01:56;;;;;;;9.23;3.72;;;;;;;7.30;73.14;102501.34;4997524;28;20018;-83
2022/05/09 01:04:26;;;;;;;9.57;3.55;;;;;;;7.29;72.98;102510.00;4996913;28;20026;-83
2022/05/09 01:06:52;;;;;;;12.48;3.63;;;;;;;7.23;72.36;102505.50;4980461;28;20026;-83
2022/05/09 01:09:17;;;;;;;5.07;3.42;;;;;;;7.17;73.07;102502.75;4996937;28;20023;-83
2022/05/09 01:11:44;;;;;;;8.27;3.53;;;;;;;7.15;73.15;102509.63;4997574;28;20073;-83
2022/05/09 01:14:13;;;;;;;8.70;3.33;;;;;;;7.08;73.08;102507.72;5013462;28;20061;-83
2022/05/09 01:16:39;;;;;;;6.88;3.20;;;;;;;7.08;72.19;102500.78;4995781;28;20077;-83
2022/05/09 01:19:16;;;;;;;3.60;2.95;;;;;;;7.11;72.02;102505.19;4995621;28;20014;-83
2022/05/09 01:21:41;;;;;;;6.22;3.03;;;;;;;7.14;72.70;102504.38;4995888;28;20173;-83
2022/05/09 01:24:15;;;;;;;7.65;2.80;;;;;;;7.05;71.49;102502.44;4995570;28;20030;-83
2022/05/09 01:26:40;;;;;;;5.65;3.13;;;;;;;7.14;70.80;102505.25;4996775;28;20027;-83
2022/05/09 01:29:10;;;;;;;9.25;2.75;;;;;;;7.15;70.98;102498.34;4995877;28;20402;-83
2022/05/09 01:31:35;;;;;;;7.90;3.33;;;;;;;7.12;71.39;102501.75;4995681;28;20037;-83
2022/05/09 01:34:01;;;;;;;13.82;3.47;;;;;;;7.08;71.04;102494.72;4996110;28;20026;-83
2022/05/09 01:36:28;;;;;;;10.10;3.10;;;;;;;7.02;71.70;102490.25;4995651;28;20037;-83
2022/05/09 01:38:59;;;;;;;7.30;2.88;;;;;;;6.90;71.80;102490.78;4980065;28;20382;-83
2022/05/09 01:41:26;;;;;;;10.88;3.67;;;;;;;6.89;72.05;102496.78;4996077;28;20022;-83
2022/05/09 01:43:55;;;;;;;7.07;3.20;;;;;;;6.91;72.36;102497.72;4996003;28;20026;-83
2022/05/09 01:46:30;;;;;;;4.30;3.17;;;;;;;6.86;71.80;102493.25;5012258;28;20465;-83
2022/05/09 01:51:42;;;;;;;6.85;3.10;;;;;;;6.80;72.37;102493.94;4996421;28;20037;-84
2022/05/09 01:54:08;;;;;;;9.50;2.95;;;;;;;6.82;71.50;102491.41;4980172;28;20076;-83
2022/05/09 01:56:35;;;;;;;7.88;2.92;;;;;;;6.76;71.06;102498.19;4995106;28;20027;-83
2022/05/09 01:59:01;;;;;;;7.60;3.30;;;;;;;6.80;71.71;102495.66;5012646;28;20018;-83
2022/05/09 02:01:29;;;;;;;8.38;3.10;;;;;;;6.76;71.09;102497.28;4995852;28;20046;-83
2022/05/09 02:03:55;;;;;;;10.93;3.10;;;;;;;6.73;72.07;102499.81;4995519;28;20030;-83
2022/05/09 02:06:21;;;;;;;7.18;2.92;;;;;;;6.67;71.38;102503.09;4996213;28;20018;-84
2022/05/09 02:08:47;;;;;;;8.70;3.13;;;;;;;6.64;71.53;102504.72;4996395;28;20402;-83
2022/05/09 02:11:13;;;;;;;4.53;2.90;;;;;;;6.53;71.54;102502.72;4995847;28;20026;-83
2022/05/09 02:13:38;;;;;;;5.97;2.75;;;;;;;6.56;71.64;102505.38;4996060;28;20022;-83
2022/05/09 02:16:04;;;;;;;6.07;2.92;;;;;;;6.52;72.63;102507.88;4996259;28;20026;-83
2022/05/09 02:18:31;;;;;;;4.57;2.97;;;;;;;6.55;71.79;102513.13;5011623;28;20030;-83
2022/05/09 02:20:57;;;;;;;4.55;2.60;;;;;;;6.53;72.36;102505.31;4996253;28;20022;-83
2022/05/09 02:23:22;;;;;;;7.88;3.38;;;;;;;6.50;71.66;102519.91;4996156;28;20037;-84
2022/05/09 02:25:47;;;;;;;4.72;2.58;;;;;;;6.47;72.37;102514.63;4995295;28;20053;-83
2022/05/09 02:28:14;;;;;;;5.78;2.70;;;;;;;6.39;72.58;102515.28;4995536;28;20019;-83
2022/05/09 02:30:40;;;;;;;5.50;3.33;;;;;;;6.33;72.64;102516.81;4980016;28;20027;-83
2022/05/09 02:33:07;;;;;;;5.10;3.05;;;;;;;6.32;72.78;102515.91;4995774;28;20042;-83
2022/05/09 02:35:33;;;;;;;6.45;2.30;;;;;;;6.38;71.87;102513.53;4995611;28;20034;-83
2022/05/09 02:37:59;;;;;;;4.20;2.40;;;;;;;6.35;72.30;102517.72;5012310;28;20030;-83
2022/05/09 02:40:24;;;;;;;5.60;2.67;;;;;;;6.29;73.03;102514.97;5012936;28;20064;-83
2022/05/09 02:42:53;;;;;;;8.55;2.92;;;;;;;6.31;72.33;102518.47;4996303;28;20050;-82
2022/05/09 02:45:19;;;;;;;6.53;2.63;;;;;;;6.20;72.41;102516.44;4996136;28;20026;-83
2022/05/09 02:47:44;;;;;;;7.00;2.90;;;;;;;6.11;72.77;102510.97;5013009;28;20103;-83
2022/05/09 02:50:11;;;;;;;8.30;2.70;;;;;;;6.16;72.93;102509.41;5012995;28;20081;-83
2022/05/09 02:52:37;;;;;;;7.95;2.85;;;;;;;6.10;73.11;102509.19;4997161;28;20058;-83
2022/05/09 02:55:05;;;;;;;6.90;3.33;;;;;;;6.17;72.38;102505.06;5013127;28;20502;-84
2022/05/09 02:57:30;;;;;;;5.65;3.35;;;;;;;6.12;72.31;102509.22;4996960;28;20022;-83
2022/05/09 02:59:56;;;;;;;4.38;2.65;;;;;;;6.05;72.86;102505.56;4997075;28;20026;-83
2022/05/09 03:02:21;;;;;;;6.60;2.53;;;;;;;6.06;71.86;102504.72;4996573;28;20050;-82
2022/05/09 03:04:48;;;;;;;6.30;3.05;;;;;;;6.00;72.26;102512.31;4997025;28;20027;-83
2022/05/09 03:07:15;;;;;;;8.02;2.80;;;;;;;5.93;72.06;102517.28;4997286;28;20398;-83
2022/05/09 03:09:42;;;;;;;6.90;2.90;;;;;;;5.92;72.78;102515.50;4998992;28;20026;-83
2022/05/09 03:12:09;;;;;;;5.70;3.17;;;;;;;5.96;73.37;102520.78;4982282;28;20029;-83
2022/05/09 03:14:35;;;;;;;7.35;2.95;;;;;;;5.92;72.12;102520.69;5015160;28;20398;-83
2022/05/09 03:17:01;;;;;;;6.18;2.65;;;;;;;5.89;72.25;102515.44;4998452;28;20026;-83
2022/05/09 03:19:26;;;;;;;5.50;3.10;;;;;;;5.85;71.92;102513.56;4998214;28;20030;-83
2022/05/09 03:21:52;;;;;;;5.00;2.88;;;;;;;5.83;71.91;102510.03;4981636;28;20030;-83
2022/05/09 03:24:19;;;;;;;6.75;2.92;;;;;;;5.78;72.36;102511.63;4982037;28;20038;-83
2022/05/09 03:26:45;;;;;;;5.30;3.30;;;;;;;5.75;72.49;102511.50;4982498;28;20101;-83
2022/05/09 03:29:10;;;;;;;6.07;2.88;;;;;;;5.80;72.57;102511.66;4981497;28;20061;-83
2022/05/09 03:31:35;;;;;;;4.00;2.55;;;;;;;5.80;72.37;102512.53;4998032;28;20036;-83
2022/05/09 03:34:01;;;;;;;8.43;3.03;;;;;;;5.81;72.21;102506.53;5013130;28;20470;-83
2022/05/09 03:36:26;;;;;;;9.00;3.10;;;;;;;5.74;72.09;102507.16;4995395;28;20121;-83
2022/05/09 03:38:51;;;;;;;5.47;2.90;;;;;;;5.68;72.56;102509.53;4994958;28;20401;-83
2022/05/09 03:41:17;;;;;;;4.05;2.80;;;;;;;5.68;73.11;102500.03;4994533;28;20022;-83
2022/05/09 03:43:42;;;;;;;4.15;2.63;;;;;;;5.72;72.21;102495.84;4993679;28;20041;-83
2022/05/09 03:46:07;;;;;;;6.47;2.92;;;;;;;5.82;72.15;102502.19;4993590;28;20033;-83
2022/05/09 03:48:33;;;;;;;4.50;2.85;;;;;;;5.90;71.81;102496.44;4993840;28;20026;-83
2022/05/09 03:50:58;;;;;;;9.02;2.95;;;;;;;5.93;71.24;102509.50;4994438;28;20023;-83
2022/05/09 03:53:24;;;;;;;4.50;2.58;;;;;;;6.07;70.90;102504.78;4977448;28;20026;-83
2022/05/09 03:55:50;;;;;;;5.57;2.50;;;;;;;6.11;71.63;102497.97;5009683;28;20391;-83
2022/05/09 03:58:16;;;;;;;6.20;2.83;;;;;;;6.12;71.24;102496.25;4994678;28;20022;-83
2022/05/09 04:00:41;;;;;;;7.97;2.97;;;;;;;6.25;70.46;102504.47;4993853;28;20033;-83
2022/05/09 04:03:07;;;;;;;8.10;3.67;;;;;;;6.28;71.00;102502.81;4995264;28;20076;-84
2022/05/09 04:05:33;;;;;;;10.32;2.83;;;;;;;6.37;70.85;102503.97;4994143;28;20113;-85
2022/05/09 04:08:01;;;;;;;5.13;2.75;;;;;;;6.30;70.85;102501.13;4994528;28;20022;-85
2022/05/09 04:10:30;;;;;;;7.05;2.60;;;;;;;6.25;71.99;102508.78;4994891;28;20019;-84
2022/05/09 04:12:55;;;;;;;3.92;2.88;;;;;;;6.29;71.46;102504.56;5010855;28;20089;-84
2022/05/09 04:18:05;;;;;;;8.02;2.97;;;;;;;6.29;71.88;102507.16;4998217;28;20032;-84
2022/05/09 04:20:31;;;;;;;6.40;3.00;;;;;;;6.35;71.81;102499.56;4997449;28;20026;-84
2022/05/09 04:23:00;;;;;;;10.75;3.30;;;;;;;6.35;70.97;102503.03;4997908;28;20032;-84
2022/05/09 04:25:26;;;;;;;9.55;3.50;;;;;;;6.48;70.79;102501.69;5013926;28;20022;-84
2022/05/09 04:27:52;;;;;;;8.02;3.15;;;;;;;6.47;71.72;102499.91;4997696;28;20113;-84
2022/05/09 04:30:17;;;;;;;7.18;2.63;;;;;;;6.42;72.46;102506.69;4997460;28;20061;-85
2022/05/09 04:32:43;;;;;;;7.82;3.35;;;;;;;6.40;72.28;102508.38;4998467;28;20082;-85
2022/05/09 04:35:17;;;;;;;5.63;3.00;;;;;;;6.42;72.08;102507.59;5013304;28;20026;-87
2022/05/09 04:37:45;;;;;;;4.57;2.72;;;;;;;6.41;72.17;102505.81;4996195;28;20121;-86
2022/05/09 04:40:11;;;;;;;7.40;2.70;;;;;;;6.51;72.20;102506.97;4997920;28;20106;-84
2022/05/09 04:42:36;;;;;;;7.00;3.50;;;;;;;6.50;71.85;102500.00;4998467;28;20022;-84
2022/05/09 04:45:02;;;;;;;6.38;2.70;;;;;;;6.51;73.07;102500.91;4998113;28;20030;-84
2022/05/09 04:47:27;;;;;;;5.82;2.78;;;;;;;6.46;72.93;102497.28;4980865;28;20037;-82
2022/05/09 04:49:52;;;;;;;10.70;3.05;;;;;;;6.60;71.53;102496.84;4995934;28;20031;-83
2022/05/09 04:52:18;;;;;;;7.97;3.10;;;;;;;6.64;71.90;102499.53;4995733;28;20048;-82
2022/05/09 04:54:43;;;;;;;6.80;3.92;;;;;;;6.65;72.10;102498.69;4995289;28;20026;-82
2022/05/09 04:57:08;;;;;;;7.63;2.45;;;;;;;6.70;72.70;102491.94;4995369;28;20100;-82
2022/05/09 04:59:34;;;;;;;8.23;2.80;;;;;;;6.74;71.68;102493.78;4996405;28;20029;-83
2022/05/09 05:02:00;;;;;;;8.20;3.00;;;;;;;6.71;72.46;102489.38;4996436;28;20433;-81
2022/05/09 05:04:25;;;;;;;7.78;2.83;;;;;;;6.73;72.88;102487.69;4995710;28;20049;-83
2022/05/09 05:06:51;;;;;;;7.55;3.10;;;;;;;6.73;72.25;102492.00;4995643;28;20022;-83
2022/05/09 05:09:16;;;;;;;4.85;3.10;;;;;;;6.79;73.27;102505.19;4979388;28;20061;-82
2022/05/09 05:11:41;;;;;;;7.97;2.95;;;;;;;6.89;72.57;102494.19;4996226;28;20162;-83
2022/05/09 05:14:07;;;;;;;5.57;3.10;;;;;;;6.98;71.69;102501.38;4995931;28;20486;-82
2022/05/09 05:19:16;;;;;;;7.03;3.10;;;;;;;7.10;72.52;102503.41;4996356;28;20034;-82
2022/05/09 05:21:42;;;;;;;5.55;3.25;;;;;;;7.08;72.07;102499.91;4995012;28;20018;-82
2022/05/09 05:24:07;;;;;;;4.68;2.65;;;;;;;7.13;71.36;102500.94;4995465;28;20434;-82
2022/05/09 05:26:33;;;;;;;6.85;2.97;;;;;;;7.23;71.53;102515.91;4995449;28;20096;-82
2022/05/09 05:28:58;;;;;;;10.13;3.08;;;;;;;7.25;71.38;102509.03;4995221;28;20113;-84
2022/05/09 05:31:23;;;;;;;8.32;3.28;;;;;;;7.39;70.24;102500.69;4995263;28;20116;-82
2022/05/09 05:33:49;;;;;;;7.93;3.25;;;;;;;7.36;70.65;102495.44;4995379;28;20121;-83
2022/05/09 05:36:15;;;;;;;8.85;3.05;;;;;;;7.50;70.88;102504.47;4995001;28;20041;-82
2022/05/09 05:38:41;;;;;;;7.78;3.03;;;;;;;7.52;71.83;102507.97;4995241;28;20573;-82
2022/05/09 05:41:07;;;;;;;9.05;2.92;;;;;;;7.62;70.73;102509.09;4994894;28;20077;-83
2022/05/09 05:43:32;;;;;;;4.30;2.55;;;;;;;7.61;69.72;102500.41;4978558;28;20164;-83
2022/05/09 05:45:57;;;;;;;4.97;2.67;;;;;;;7.68;70.03;102504.06;4994853;28;20080;-83
2022/05/09 05:48:24;;;;;;;6.88;2.95;;;;;;;7.73;71.06;102501.56;4994504;28;20054;-82
2022/05/09 05:50:49;;;;;;;6.53;2.92;;;;;;;7.75;71.10;102489.47;5010681;28;20026;-82
2022/05/09 05:53:14;;;;;;;5.50;2.35;;;;;;;7.81;71.05;102496.53;4994641;28;20470;-82
2022/05/09 05:55:40;;;;;;;5.60;2.50;;;;;;;7.88;71.41;102501.94;4994472;28;20035;-82
2022/05/09 05:58:05;;;;;;;5.47;2.95;;;;;;;7.87;70.93;102502.78;4994192;28;20041;-82
2022/05/09 06:00:30;;;;;;;4.05;2.72;;;;;;;7.95;70.92;102503.84;4994121;28;20023;-83
2022/05/09 06:02:56;;;;;;;7.13;2.70;;;;;;;8.01;70.95;102497.03;4994212;28;20030;-82
2022/05/09 06:05:21;;;;;;;4.07;2.30;;;;;;;8.07;71.73;102498.06;4993150;28;20026;-83
2022/05/09 06:07:48;;;;;;;9.25;3.03;;;;;;;8.10;69.44;102492.91;4994268;28;20056;-85
2022/05/09 06:10:15;;;;;;;5.68;2.50;;;;;;;8.18;68.94;102495.69;4995195;28;20454;-84
2022/05/09 06:12:40;;;;;;;6.97;2.60;;;;;;;8.26;69.49;102498.44;5011132;28;20026;-84
2022/05/09 06:15:27;;;;;;;5.53;2.63;;;;;;;8.32;69.74;102495.09;4994442;28;20032;-84
2022/05/09 06:17:53;;;;;;;6.18;2.45;;;;;;;8.41;70.17;102500.50;4995235;28;20033;-85
2022/05/09 06:20:19;;;;;;;8.63;2.67;;;;;;;8.45;68.60;102497.16;4994703;28;20026;-83
2022/05/09 06:22:44;;;;;;;7.38;2.97;;;;;;;8.51;69.86;102510.31;4994908;28;20023;-84
2022/05/09 06:25:12;;;;;;;9.60;2.05;;;;;;;8.56;68.55;102510.41;5011365;28;20029;-84
2022/05/09 06:27:38;;;;;;;5.97;2.42;;;;;;;8.57;68.77;102500.00;4995317;28;20022;-82
2022/05/09 06:30:07;;;;;;;8.32;2.45;;;;;;;8.68;68.45;102499.38;4994480;28;20023;-82
2022/05/09 06:32:32;;;;;;;8.48;2.60;;;;;;;8.72;66.96;102503.81;4978791;28;20034;-82
2022/05/09 06:35:00;;;;;;;12.70;2.63;;;;;;;8.81;67.00;102504.00;4995426;28;20060;-83
2022/05/09 06:37:26;;;;;;;5.72;2.28;;;;;;;8.86;67.52;102499.75;5010530;28;20034;-83
2022/05/09 06:39:52;;;;;;;6.20;2.53;;;;;;;8.90;66.56;102504.19;4995210;28;20145;-83
2022/05/09 06:42:17;;;;;;;7.40;2.85;;;;;;;8.99;66.65;102505.22;4996066;28;20331;-83
2022/05/09 06:44:42;;;;;;;7.82;3.15;;;;;;;8.99;65.98;102492.19;4996305;28;20060;-83
2022/05/09 06:47:10;;;;;;;4.93;2.47;;;;;;;9.07;66.87;102498.41;4993844;28;20034;-84
2022/05/09 06:49:36;;;;;;;6.45;2.42;;;;;;;9.09;66.72;102494.09;4995997;28;20505;-84
2022/05/09 06:52:01;;;;;;;8.77;2.40;;;;;;;9.12;67.22;102488.91;4995030;28;20034;-84
2022/05/09 06:54:26;;;;;;;6.43;2.10;;;;;;;9.19;65.93;102489.91;4996813;28;20026;-85
2022/05/09 06:56:52;;;;;;;12.02;3.85;;;;;;;9.29;65.10;102487.50;4977906;28;20077;-84
2022/05/09 06:59:19;;;;;;;7.75;2.45;;;;;;;9.32;64.10;102486.69;4994435;28;20061;-85
2022/05/09 07:01:45;;;;;;;10.07;2.78;;;;;;;9.37;65.79;102494.59;4991767;28;20014;-85
2022/05/09 07:04:11;;;;;;;11.07;2.33;;;;;;;9.35;66.35;102486.72;4977371;28;20528;-85
2022/05/09 07:06:37;;;;;;;10.73;2.22;;;;;;;9.43;67.84;102492.94;4993079;28;20394;-85
2022/05/09 07:09:05;;;;;;;7.90;2.45;;;;;;;9.44;66.96;102486.03;4979313;28;20166;-81
2022/05/09 07:11:30;;;;;;;9.98;2.80;;;;;;;9.41;65.29;102476.41;4993887;28;20028;-81
2022/05/09 07:13:55;;;;;;;10.57;2.40;;;;;;;9.53;66.61;102485.28;4994665;28;20385;-81
2022/05/09 07:16:21;;;;;;;7.18;2.53;;;;;;;9.51;66.81;102479.19;4994276;28;20038;-83
2022/05/09 07:18:47;;;;;;;7.35;2.65;;;;;;;9.60;67.34;102495.00;4980005;28;20022;-82
2022/05/09 07:21:12;;;;;;;8.75;2.33;;;;;;;9.64;66.80;102487.22;4979077;28;20756;-83
2022/05/09 07:23:38;;;;;;;6.22;2.83;;;;;;;9.68;66.66;102490.78;4981409;28;20102;-84
2022/05/09 07:26:03;;;;;;;9.40;2.85;;;;;;;9.69;66.49;102491.66;4981004;28;20030;-86
2022/05/09 07:28:29;;;;;;;11.23;3.38;;;;;;;9.73;66.51;102493.44;4978142;28;20033;-86
2022/05/09 07:30:56;;;;;;;6.22;2.47;;;;;;;9.79;65.33;102484.00;4980106;28;20031;-85
2022/05/09 07:33:22;;;;;;;9.38;2.50;;;;;;;9.85;66.50;102487.56;4981577;28;20026;-84
2022/05/09 07:35:48;;;;;;;5.03;2.72;;;;;;;9.87;66.74;102486.72;4980646;28;20030;-85
2022/05/09 07:38:14;;;;;;;8.32;3.00;;;;;;;9.94;66.09;102487.72;4998022;28;20609;-86
2022/05/09 07:40:41;;;;;;;6.72;2.80;;;;;;;9.98;65.93;102490.38;4980587;28;20109;-85
2022/05/09 07:43:09;;;;;;;8.15;2.60;;;;;;;10.05;65.66;102487.84;4979805;28;20036;-86
2022/05/09 07:45:34;;;;;;;10.00;3.00;;;;;;;10.11;63.72;102487.94;4993772;28;20022;-86
2022/05/09 07:47:59;;;;;;;9.07;2.30;;;;;;;10.08;64.04;102472.25;4977858;28;20038;-85
2022/05/09 07:50:26;;;;;;;6.80;2.30;;;;;;;10.17;62.99;102482.81;4980858;28;20037;-85
2022/05/09 07:52:51;;;;;;;4.18;2.30;;;;;;;10.25;61.75;102483.78;4979674;28;20289;-88
2022/05/09 07:55:17;;;;;;;5.40;2.55;;;;;;;10.27;62.85;102476.84;4979125;28;20108;-88
2022/05/09 07:57:43;;;;;;;5.35;2.22;;;;;;;10.28;63.67;102470.78;4980064;28;20478;-89
2022/05/09 08:00:10;;;;;;;5.78;2.45;;;;;;;10.22;63.61;102460.22;4978804;28;20018;-89
2022/05/09 08:02:40;;;;;;;4.82;2.30;;;;;;;10.30;62.53;102465.56;4979335;28;20026;-89
2022/05/09 08:05:06;;;;;;;8.80;2.05;;;;;;;10.38;62.62;102470.94;4979295;28;20486;-89
2022/05/09 08:07:32;;;;;;;5.20;2.15;;;;;;;10.41;60.26;102452.69;4978857;28;20030;-89
2022/05/09 08:09:57;;;;;;;5.78;2.45;;;;;;;10.50;59.25;102460.63;4978668;28;20371;-89
2022/05/09 08:12:22;;;;;;;6.57;2.42;;;;;;;10.52;60.09;102451.06;4978766;28;20031;-90
2022/05/09 08:14:48;;;;;;;4.93;2.00;;;;;;;10.69;60.62;102459.13;4978797;28;20077;-86
2022/05/09 08:17:13;;;;;;;8.32;2.80;;;;;;;10.74;60.82;102446.09;4978493;28;20489;-86
2022/05/09 08:19:39;;;;;;;13.57;2.63;;;;;;;10.78;60.32;102442.66;4978615;28;20018;-86
2022/05/09 08:22:07;;;;;;;10.00;2.42;;;;;;;10.90;60.40;102442.78;4979008;28;20034;-89
2022/05/09 08:51:52;;;;;;;8.30;2.38;;;;;;;11.70;56.96;102432.13;4993332;28;20617;-85
2022/05/09 08:54:20;;;;;;;5.85;2.10;;;;;;;11.63;58.17;102423.34;4978121;28;20018;-86
2022/05/09 08:56:48;;;;;;;3.92;1.88;;;;;;;11.77;59.54;102423.44;4977901;28;20025;-90
2022/05/09 08:59:23;;;;;;;8.93;2.85;;;;;;;12.02;56.32;102433.22;4977721;28;20026;-86
2022/05/09 09:01:55;;;;;;;4.20;1.70;;;;;;;12.09;54.92;102429.75;4978027;28;20050;-85
2022/05/09 09:04:24;;;;;;;7.43;2.25;;;;;;;12.04;55.89;102437.59;4978156;28;20085;-89
2022/05/09 09:07:11;;;;;;;5.70;1.92;;;;;;;12.16;56.42;102432.44;4976236;28;20045;-85
2022/05/09 09:09:59;;;;;;;6.97;2.53;;;;;;;12.28;56.65;102430.72;4993904;28;20077;-86
2022/05/09 09:12:52;;;;;;;7.22;2.30;;;;;;;12.29;56.31;102432.47;4994144;28;20030;-86
2022/05/09 09:15:51;;;;;;;7.88;2.35;;;;;;;12.42;55.55;102426.44;4994094;28;20033;-86
2022/05/09 09:18:44;;;;;;;8.32;2.15;;;;;;;12.36;56.06;102420.28;4993847;28;20077;-85
2022/05/09 09:21:14;;;;;;;4.70;1.92;;;;;;;12.51;58.29;102429.06;4994188;28;20033;-86
2022/05/09 09:24:05;;;;;;;9.10;2.47;;;;;;;12.58;54.66;102409.00;4995487;28;20029;-85
2022/05/09 09:26:55;;;;;;;6.03;2.08;;;;;;;12.65;56.42;102413.41;4986317;28;20109;-85
2022/05/09 09:29:34;;;;;;;6.25;2.05;;;;;;;12.85;54.50;102412.56;4995094;28;20065;-85
2022/05/09 09:32:09;;;;;;;10.35;2.03;;;;;;;12.74;55.86;102398.56;4977672;28;20029;-85
2022/05/09 09:34:42;;;;;;;10.43;2.45;;;;;;;12.84;55.19;102400.31;4993647;28;20505;-86
2022/05/09 09:37:44;;;;;;;4.45;2.17;;;;;;;12.77;54.20;102396.78;4977207;28;20116;-86
2022/05/09 09:40:10;;;;;;;6.03;2.00;;;;;;;13.21;56.03;102391.59;4987268;28;20637;-86
2022/05/09 09:42:35;;;;;;;5.80;2.20;;;;;;;13.28;55.79;102391.59;4993329;28;20038;-88
2022/05/09 09:45:03;;;;;;;3.72;1.90;;;;;;;13.10;53.12;102382.00;4993278;28;20022;-87
2022/05/09 09:47:29;;;;;;;6.50;1.75;;;;;;;13.05;54.01;102393.31;5009473;28;20041;-87
2022/05/09 09:50:16;;;;;;;3.17;2.17;;;;;;;12.96;53.86;102384.59;5009303;28;20033;-88
2022/05/09 09:52:48;;;;;;;5.60;2.00;;;;;;;13.01;56.11;102382.84;4993141;28;20041;-87
2022/05/09 09:55:33;;;;;;;4.75;1.90;;;;;;;13.25;54.70;102386.38;5009899;28;20030;-87
2022/05/09 09:58:24;;;;;;;9.57;2.38;;;;;;;13.68;52.23;102386.31;4977321;28;20033;-87
2022/05/09 10:01:12;;;;;;;5.45;1.70;;;;;;;13.72;50.02;102386.31;4977207;28;20466;-87
2022/05/09 10:03:42;;;;;;;6.00;1.90;;;;;;;13.63;47.43;102374.97;4993332;28;20030;-87
2022/05/09 10:06:19;;;;;;;7.43;1.80;;;;;;;13.56;48.18;102370.59;4976463;28;20029;-87
2022/05/09 10:08:46;;;;;;;7.15;1.80;;;;;;;13.65;48.23;102365.31;4993654;28;20022;-87
2022/05/09 10:11:20;;;;;;;9.68;2.70;;;;;;;14.02;53.93;102362.56;5010348;28;20022;-88
2022/05/09 10:13:54;;;;;;;6.40;2.50;;;;;;;14.22;49.88;102339.72;4994386;28;20027;-88
2022/05/09 10:16:35;;;;;;;6.80;2.75;;;;;;;14.44;51.30;102354.50;4993341;28;20076;-88
2022/05/09 10:19:07;;;;;;;6.18;2.58;;;;;;;14.42;50.45;102348.34;4993049;28;20080;-87
2022/05/09 10:27:05;;;;;;;6.78;2.10;;;;;;;14.93;47.84;102350.69;4994184;28;20041;-86
2022/05/09 10:29:33;;;;;;;7.55;2.45;;;;;;;14.93;49.01;102345.41;5009394;28;20019;-86
2022/05/09 10:32:02;;;;;;;6.47;1.92;;;;;;;14.87;44.51;102345.44;4992801;28;20437;-86
2022/05/09 10:34:39;;;;;;;2.20;1.50;;;;;;;15.08;44.17;102338.25;4992482;28;20667;-85
2022/05/09 10:37:30;;;;;;;4.55;1.50;;;;;;;14.90;44.63;102339.28;4992152;28;20025;-85
2022/05/09 10:40:06;;;;;;;3.05;1.80;;;;;;;14.79;45.30;102326.22;4974478;28;20054;-86
2022/05/09 10:42:38;;;;;;;4.82;1.55;;;;;;;14.93;46.75;102329.63;4992422;28;20026;-86
2022/05/09 10:45:06;;;;;;;2.65;1.70;;;;;;;14.91;43.32;102328.75;4992407;28;20030;-86
2022/05/09 10:47:52;;;;;;;2.85;1.65;;;;;;;15.43;40.41;102329.16;4992516;28;20123;-85
2022/05/09 10:50:25;;;;;;;3.63;1.70;;;;;;;15.71;44.13;102327.94;4992449;28;20663;-85
2022/05/09 10:53:20;;;;;;;3.95;1.90;;;;;;;15.47;44.89;102330.88;4976329;28;20026;-85
2022/05/09 10:56:02;;;;;;;4.50;1.73;;;;;;;15.55;40.03;102324.63;4992386;28;20048;-85
2022/05/09 10:58:46;;;;;;;2.50;1.30;;;;;;;15.64;38.82;102318.38;4993274;28;20030;-86
2022/05/09 11:01:16;;;;;;;3.88;1.88;;;;;;;15.70;38.58;102320.94;4993373;28;20026;-86
2022/05/09 11:03:44;;;;;;;7.50;1.98;;;;;;;16.08;37.24;102317.88;4976422;28;20030;-85
2022/05/09 11:06:28;;;;;;;4.40;1.50;;;;;;;15.79;38.79;102313.81;4991922;28;20018;-85
2022/05/09 11:09:24;;;;;;;4.68;1.70;;;;;;;15.94;35.12;102303.13;4992018;28;20057;-86
2022/05/09 11:12:14;;;;;;;5.43;1.60;;;;;;;15.65;37.22;102292.91;4991929;28;20490;-86
2022/05/09 11:15:03;;;;;;;5.55;1.60;;;;;;;16.14;37.83;102297.59;4991831;28;20030;-86
2022/05/09 11:17:58;;;;;;;4.95;1.77;;;;;;;16.46;33.48;102284.81;4991633;28;20030;-85
2022/05/09 11:20:51;;;;;;;4.75;1.40;;;;;;;16.36;36.34;102281.44;4990501;28;20403;-85
2022/05/09 11:23:32;;;;;;;2.83;1.67;;;;;;;16.23;39.16;102280.75;4992941;28;20410;-85
2022/05/09 11:26:22;;;;;;;4.65;2.17;;;;;;;16.37;35.74;102273.53;4979466;28;20089;-86
2022/05/09 11:29:20;;;;;;;3.28;1.65;;;;;;;16.61;38.10;102270.53;4995771;28;20453;-85
2022/05/09 11:32:11;;;;;;;3.50;1.55;;;;;;;16.79;33.61;102264.06;4995738;28;20027;-86
2022/05/09 11:35:10;;;;;;;6.40;1.73;;;;;;;16.78;34.83;102257.88;4995702;28;20038;-86
2022/05/09 11:38:01;;;;;;;3.78;1.60;;;;;;;16.82;36.36;102246.38;4995205;28;20034;-85
2022/05/09 11:40:54;;;;;;;5.00;1.23;;;;;;;16.83;37.54;102249.91;4995398;28;20463;-85
2022/05/09 11:43:41;;;;;;;3.60;1.50;;;;;;;17.03;37.81;102242.53;4979407;28;20113;-86
2022/05/09 11:46:41;;;;;;;4.65;1.77;;;;;;;17.27;36.66;102245.59;4995213;28;20026;-85
2022/05/09 11:49:44;;;;;;;4.30;1.65;;;;;;;17.34;35.77;102241.94;4979364;28;20154;-86
2022/05/09 11:52:44;;;;;;;8.40;2.05;;;;;;;17.55;32.03;102229.19;4995438;28;20045;-86
2022/05/09 11:55:17;;;;;;;3.20;1.63;;;;;;;17.74;33.13;102224.38;4995058;28;20037;-85
2022/05/09 11:57:46;;;;;;;3.70;2.00;;;;;;;17.53;33.13;102226.59;4995158;28;20121;-86
2022/05/09 12:00:35;;;;;;;3.83;1.80;;;;;;;17.80;33.44;102233.94;4978242;28;20080;-86
2022/05/09 12:03:05;;;;;;;2.50;1.17;;;;;;;17.70;33.40;102223.56;4995537;28;20030;-85
2022/05/09 12:05:31;;;;;;;5.03;1.55;;;;;;;17.54;35.01;102217.75;4979454;28;20084;-85
2022/05/09 12:08:09;;;;;;;3.00;1.33;;;;;;;17.60;31.95;102219.41;4995808;28;20068;-85
2022/05/09 12:10:39;;;;;;;2.42;1.45;;;;;;;17.69;30.70;102210.41;4996416;28;20022;-84
2022/05/09 12:13:10;;;;;;;3.75;1.23;;;;;;;17.44;36.26;102215.31;4979560;28;20030;-85
2022/05/09 12:15:36;;;;;;;4.40;1.50;;;;;;;17.56;35.29;102215.06;4980316;28;20026;-85
2022/05/09 12:18:07;;;;;;;2.42;1.60;;;;;;;17.93;35.89;102209.00;4999197;28;20483;-85
2022/05/09 12:20:38;;;;;;;4.22;1.83;;;;;;;17.80;35.99;102210.16;4997610;28;20022;-85
2022/05/09 12:23:05;;;;;;;3.45;1.58;;;;;;;18.24;36.08;102201.22;4998215;28;20036;-85